Time;durP1;ratioP1;P1;durP2;ratioP2;P2;SDS_P1;SDS_P2;PMS_P1;PMS_P2;Temp;Humidity;BMP_temperature;BMP_pressure;BME280_temperature;BME280_humidity;BME280_pressure;Samples;Min_cycle;Max_cycle;Signal;HPM_P1;HPM_P2
2022/07/27 00:01:37;;;;;;;16.65;11.13;;;;;;;;;;4969708;28;20069;-73
2022/07/27 00:04:07;;;;;;;16.95;10.65;;;;;;;;;;4970048;28;20042;-71
2022/07/27 00:06:37;;;;;;;12.95;9.00;;;;;;;;;;4972290;28;20050;-70
2022/07/27 00:09:10;;;;;;;18.77;9.60;;;;;;;;;;4982909;28;20062;-71
2022/07/27 00:11:41;;;;;;;16.25;10.63;;;;;;;;;;4981923;28;20070;-71
2022/07/27 00:14:11;;;;;;;18.80;10.93;;;;;;;;;;4975371;28;20073;-72
2022/07/27 00:16:41;;;;;;;15.63;10.57;;;;;;;;;;4953644;28;20054;-73
2022/07/27 00:19:11;;;;;;;14.30;10.13;;;;;;;;;;4951879;28;20061;-73
2022/07/27 00:21:42;;;;;;;15.90;11.10;;;;;;;;;;4969764;28;20051;-72
2022/07/27 00:24:14;;;;;;;18.30;9.25;;;;;;;;;;4969495;28;20055;-72
2022/07/27 00:26:44;;;;;;;16.90;10.52;;;;;;;;;;4969678;28;20498;-72
2022/07/27 00:29:15;;;;;;;16.05;10.52;;;;;;;;;;4969652;28;20054;-75
2022/07/27 00:31:45;;;;;;;15.93;10.68;;;;;;;;;;4968189;28;20055;-72
2022/07/27 00:34:16;;;;;;;16.25;11.20;;;;;;;;;;4969777;28;20053;-73
2022/07/27 00:36:47;;;;;;;14.60;10.45;;;;;;;;;;4969785;28;20639;-73
2022/07/27 00:39:17;;;;;;;13.63;10.30;;;;;;;;;;4969035;28;20073;-73
2022/07/27 00:41:46;;;;;;;14.45;9.75;;;;;;;;;;4969060;28;20070;-72
2022/07/27 00:44:36;;;;;;;;;;;;;;;;;;4969621;28;20046;-74
2022/07/27 00:47:06;;;;;;;15.68;10.73;;;;;;;;;;4969430;28;19922;-74
2022/07/27 00:49:36;;;;;;;18.60;11.73;;;;;;;;;;4969254;28;20062;-74
2022/07/27 00:52:07;;;;;;;19.65;12.82;;;;;;;;;;4969076;28;20520;-73
2022/07/27 00:54:37;;;;;;;18.77;13.02;;;;;;;;;;4968935;28;20039;-74
2022/07/27 00:57:12;;;;;;;22.33;13.10;;;;;;;;;;4968736;28;20517;-75
2022/07/27 00:59:43;;;;;;;24.83;11.80;;;;;;;;;;4968930;28;20054;-73
2022/07/27 01:02:13;;;;;;;16.20;11.18;;;;;;;;;;4968961;28;20062;-75
2022/07/27 01:04:47;;;;;;;17.55;11.70;;;;;;;;;;4968872;28;20502;-73
2022/07/27 01:07:22;;;;;;;20.67;13.75;;;;;;;;;;4969212;28;20051;-73
2022/07/27 01:09:58;;;;;;;20.38;12.18;;;;;;;;;;4969418;28;20059;-74
2022/07/27 01:12:31;;;;;;;13.48;9.85;;;;;;;;;;4968779;28;20047;-73
2022/07/27 01:15:01;;;;;;;18.45;10.85;;;;;;;;;;4968939;28;20070;-75
2022/07/27 01:17:32;;;;;;;14.48;10.95;;;;;;;;;;4968163;28;20076;-74
2022/07/27 01:20:02;;;;;;;20.73;11.55;;;;;;;;;;4968724;28;20074;-73
2022/07/27 01:22:32;;;;;;;16.45;10.18;;;;;;;;;;4968762;28;20068;-72
2022/07/27 01:25:01;;;;;;;;;;;;;;;;;;4969192;28;20950;-73
2022/07/27 01:27:32;;;;;;;18.30;12.18;;;;;;;;;;4968496;28;19933;-73
2022/07/27 01:30:01;;;;;;;14.18;11.02;;;;;;;;;;4968225;28;20067;-74
2022/07/27 01:32:31;;;;;;;16.92;11.85;;;;;;;;;;4968934;28;20047;-74
2022/07/27 01:35:00;;;;;;;;;;;;;;;;;;4968849;28;20063;-74
2022/07/27 01:37:30;;;;;;;14.93;9.65;;;;;;;;;;4968595;28;19933;-74
2022/07/27 01:40:00;;;;;;;13.88;10.40;;;;;;;;;;4935703;28;20058;-73
2022/07/27 01:42:30;;;;;;;18.10;11.18;;;;;;;;;;4968034;28;20046;-73
2022/07/27 01:45:00;;;;;;;21.25;12.75;;;;;;;;;;4968145;28;20054;-75
2022/07/27 01:47:29;;;;;;;20.83;12.20;;;;;;;;;;4950213;28;20047;-74
2022/07/27 01:49:59;;;;;;;26.52;15.25;;;;;;;;;;4968135;28;20578;-74
2022/07/27 01:52:29;;;;;;;20.90;13.18;;;;;;;;;;4968021;28;20051;-72
2022/07/27 01:54:59;;;;;;;21.98;12.85;;;;;;;;;;4967402;28;20486;-74
2022/07/27 01:57:29;;;;;;;22.63;12.80;;;;;;;;;;4967384;28;20047;-73
2022/07/27 01:59:59;;;;;;;;;;;;;;;;;;4968881;28;20406;-74
2022/07/27 02:02:28;;;;;;;21.05;12.30;;;;;;;;;;4967953;28;19929;-73
2022/07/27 02:04:58;;;;;;;;;;;;;;;;;;4951661;28;20073;-74
2022/07/27 02:07:27;;;;;;;23.38;12.77;;;;;;;;;;4967668;28;19925;-73
2022/07/27 02:09:58;;;;;;;16.83;11.65;;;;;;;;;;4967890;28;20094;-74
2022/07/27 02:12:36;;;;;;;;;;;;;;;;;;4968639;28;20046;-73
2022/07/27 02:15:08;;;;;;;20.65;12.82;;;;;;;;;;4968003;28;20395;-72
2022/07/27 02:17:43;;;;;;;23.15;14.80;;;;;;;;;;4967347;28;20046;-74
2022/07/27 02:20:18;;;;;;;23.15;15.25;;;;;;;;;;4967454;28;20123;-72
2022/07/27 02:22:49;;;;;;;26.60;16.75;;;;;;;;;;4968125;28;20057;-72
2022/07/27 02:25:19;;;;;;;25.55;15.68;;;;;;;;;;4967491;28;20426;-74
2022/07/27 02:27:49;;;;;;;31.27;16.60;;;;;;;;;;4967567;28;20581;-75
2022/07/27 02:30:18;;;;;;;25.73;16.65;;;;;;;;;;4967390;28;20062;-74
2022/07/27 02:32:48;;;;;;;;;;;;;;;;;;4968330;28;20055;-73
2022/07/27 02:35:18;;;;;;;31.40;14.57;;;;;;;;;;4967094;28;20338;-73
2022/07/27 02:37:48;;;;;;;24.58;15.55;;;;;;;;;;4967807;28;20410;-75
2022/07/27 02:40:20;;;;;;;24.60;15.02;;;;;;;;;;4967288;28;20058;-73
2022/07/27 02:42:50;;;;;;;30.60;16.40;;;;;;;;;;4967921;28;20074;-74
2022/07/27 02:45:20;;;;;;;21.17;14.93;;;;;;;;;;4967327;28;20765;-75
2022/07/27 02:47:50;;;;;;;20.05;13.77;;;;;;;;;;4950754;28;20051;-73
2022/07/27 02:50:21;;;;;;;24.60;15.05;;;;;;;;;;4967943;28;20070;-73
2022/07/27 02:52:51;;;;;;;28.45;15.18;;;;;;;;;;4967751;28;20061;-73
2022/07/27 02:55:21;;;;;;;22.63;15.82;;;;;;;;;;4967222;28;20081;-73
2022/07/27 02:57:50;;;;;;;28.23;16.40;;;;;;;;;;4967233;28;20074;-73
2022/07/27 03:00:20;;;;;;;;;;;;;;;;;;4966900;28;20058;-73
2022/07/27 03:02:50;;;;;;;25.35;14.77;;;;;;;;;;4946499;29;19923;-74
2022/07/27 03:05:20;;;;;;;24.08;15.63;;;;;;;;;;4950096;28;20051;-74
2022/07/27 03:07:49;;;;;;;;;;;;;;;;;;4952160;29;20055;-74
2022/07/27 03:10:19;;;;;;;25.25;16.10;;;;;;;;;;4950558;29;19927;-73
2022/07/27 03:12:49;;;;;;;24.42;15.73;;;;;;;;;;4951995;28;20051;-73
2022/07/27 03:15:19;;;;;;;;;;;;;;;;;;4952717;28;20055;-73
2022/07/27 03:17:50;;;;;;;29.45;16.90;;;;;;;;;;4951709;29;19945;-73
2022/07/27 03:20:20;;;;;;;31.38;17.08;;;;;;;;;;4951968;29;20082;-74
2022/07/27 03:22:50;;;;;;;;;;;;;;;;;;4952177;28;20767;-74
2022/07/27 03:25:19;;;;;;;25.23;14.65;;;;;;;;;;4951651;29;19926;-74
2022/07/27 03:27:49;;;;;;;33.65;17.75;;;;;;;;;;4951566;29;20050;-76
2022/07/27 03:30:19;;;;;;;39.75;16.27;;;;;;;;;;4951113;29;20051;-72
2022/07/27 03:32:49;;;;;;;42.70;16.38;;;;;;;;;;4951345;29;20055;-71
2022/07/27 03:35:19;;;;;;;45.90;17.30;;;;;;;;;;4951187;28;20074;-72
2022/07/27 03:37:49;;;;;;;29.75;17.15;;;;;;;;;;4950850;28;20505;-73
2022/07/27 03:40:18;;;;;;;;;;;;;;;;;;4951928;29;20058;-73
2022/07/27 03:42:48;;;;;;;28.65;18.23;;;;;;;;;;4951356;28;19927;-72
2022/07/27 03:45:18;;;;;;;34.80;18.05;;;;;;;;;;4950704;28;20058;-73
2022/07/27 03:47:48;;;;;;;37.30;19.42;;;;;;;;;;4951950;29;20529;-72
2022/07/27 03:50:17;;;;;;;;;;;;;;;;;;4951984;29;20666;-72
2022/07/27 03:52:47;;;;;;;24.30;15.32;;;;;;;;;;4950884;29;20318;-74
2022/07/27 03:55:17;;;;;;;30.73;16.42;;;;;;;;;;4951037;29;20070;-73
2022/07/27 03:57:47;;;;;;;39.15;15.38;;;;;;;;;;4951166;29;20490;-73
2022/07/27 04:00:17;;;;;;;72.95;17.42;;;;;;;;;;4950974;28;20055;-72
2022/07/27 04:02:48;;;;;;;86.95;18.40;;;;;;;;;;4963847;28;20058;-74
2022/07/27 04:05:19;;;;;;;188.93;23.15;;;;;;;;;;4970297;28;20054;-73
2022/07/27 04:07:49;;;;;;;101.07;20.15;;;;;;;;;;4969721;28;20047;-73
2022/07/27 04:10:23;;;;;;;122.78;20.75;;;;;;;;;;4970015;28;20165;-72
2022/07/27 04:12:59;;;;;;;168.23;23.33;;;;;;;;;;4969763;28;20074;-72
2022/07/27 04:15:31;;;;;;;152.15;25.98;;;;;;;;;;4970097;28;20055;-73
2022/07/27 04:18:00;;;;;;;;;;;;;;;;;;4969559;28;20046;-72
2022/07/27 04:20:30;;;;;;;129.07;19.98;;;;;;;;;;4969879;28;19922;-73
2022/07/27 04:22:59;;;;;;;;;;;;;;;;;;4953094;28;20434;-74
2022/07/27 04:25:29;;;;;;;102.70;15.80;;;;;;;;;;4969661;28;19926;-73
2022/07/27 04:27:59;;;;;;;143.95;17.08;;;;;;;;;;4969583;28;20057;-74
2022/07/27 04:30:28;;;;;;;;;;;;;;;;;;4969907;28;20046;-72
2022/07/27 04:32:58;;;;;;;109.63;18.67;;;;;;;;;;4951766;28;19933;-73
2022/07/27 04:35:32;;;;;;;148.10;17.85;;;;;;;;;;4969299;28;20058;-72
2022/07/27 04:38:02;;;;;;;139.30;19.08;;;;;;;;;;4969662;28;20050;-74
2022/07/27 04:40:33;;;;;;;128.13;18.55;;;;;;;;;;4969327;28;20049;-73
2022/07/27 04:43:05;;;;;;;111.75;17.00;;;;;;;;;;4970398;28;20058;-72
2022/07/27 04:45:36;;;;;;;142.27;19.80;;;;;;;;;;4969477;28;20047;-72
2022/07/27 04:48:07;;;;;;;138.70;16.00;;;;;;;;;;4969309;28;20050;-72
2022/07/27 04:50:44;;;;;;;118.78;18.52;;;;;;;;;;4969770;28;20053;-72
2022/07/27 04:53:15;;;;;;;113.70;16.80;;;;;;;;;;4969245;28;20491;-72
2022/07/27 04:55:46;;;;;;;217.82;19.63;;;;;;;;;;4968880;28;20046;-72
2022/07/27 04:58:16;;;;;;;215.18;20.88;;;;;;;;;;4968887;28;20053;-73
2022/07/27 05:00:46;;;;;;;211.57;19.23;;;;;;;;;;4968681;28;20097;-73
2022/07/27 05:03:16;;;;;;;175.85;21.05;;;;;;;;;;4951368;28;20054;-73
2022/07/27 05:05:46;;;;;;;186.05;18.75;;;;;;;;;;4968876;28;20873;-73
2022/07/27 05:08:19;;;;;;;157.82;19.65;;;;;;;;;;4952993;28;20515;-74
2022/07/27 05:10:48;;;;;;;148.10;18.38;;;;;;;;;;4969087;28;20811;-72
2022/07/27 05:13:18;;;;;;;134.00;17.48;;;;;;;;;;4969071;28;20039;-73
2022/07/27 05:15:48;;;;;;;180.98;19.02;;;;;;;;;;4951014;28;20518;-72
2022/07/27 05:18:24;;;;;;;189.45;17.80;;;;;;;;;;4952717;28;20078;-73
2022/07/27 05:20:54;;;;;;;124.28;18.45;;;;;;;;;;4968392;28;20066;-73
2022/07/27 05:23:24;;;;;;;132.45;18.23;;;;;;;;;;4967491;28;20061;-72
2022/07/27 05:25:53;;;;;;;;;;;;;;;;;;4969100;28;20059;-75
2022/07/27 05:28:23;;;;;;;166.75;17.27;;;;;;;;;;4968261;28;19926;-72
2022/07/27 05:30:53;;;;;;;90.95;17.58;;;;;;;;;;4969156;28;20054;-73
2022/07/27 05:33:22;;;;;;;;;;;;;;;;;;4968975;28;20057;-73
2022/07/27 05:35:52;;;;;;;89.82;16.90;;;;;;;;;;4968696;28;19926;-73
2022/07/27 05:38:22;;;;;;;75.55;17.00;;;;;;;;;;4950628;28;20418;-73
2022/07/27 05:40:52;;;;;;;134.68;18.92;;;;;;;;;;4967901;28;20078;-73
2022/07/27 05:43:23;;;;;;;99.65;16.38;;;;;;;;;;4968186;28;20077;-73
2022/07/27 05:45:54;;;;;;;110.32;15.73;;;;;;;;;;4968879;28;20062;-72
2022/07/27 05:48:24;;;;;;;161.82;17.40;;;;;;;;;;4968671;28;20070;-72
2022/07/27 05:50:54;;;;;;;119.30;17.38;;;;;;;;;;4968044;28;20050;-72
2022/07/27 05:53:24;;;;;;;115.80;15.60;;;;;;;;;;4968394;28;20399;-73
2022/07/27 05:55:54;;;;;;;99.15;16.23;;;;;;;;;;4968321;28;20422;-74
2022/07/27 05:58:28;;;;;;;85.40;15.48;;;;;;;;;;4968232;28;20047;-72
2022/07/27 06:00:58;;;;;;;114.85;16.33;;;;;;;;;;4968302;28;20054;-73
2022/07/27 06:03:28;;;;;;;115.75;15.57;;;;;;;;;;4968654;28;20498;-74
2022/07/27 06:09:03;;;;;;;92.57;15.52;;;;;;;;;;4936880;28;20059;-73
2022/07/27 06:11:34;;;;;;;74.43;15.85;;;;;;;;;;4968262;28;20057;-74
2022/07/27 06:14:04;;;;;;;73.82;17.17;;;;;;;;;;4968308;28;20051;-74
2022/07/27 06:16:35;;;;;;;145.48;18.30;;;;;;;;;;4967916;28;20051;-74
2022/07/27 06:19:05;;;;;;;99.10;16.35;;;;;;;;;;4967896;28;20057;-72
2022/07/27 06:21:34;;;;;;;;;;;;;;;;;;4968129;28;20061;-72
2022/07/27 06:24:04;;;;;;;80.07;13.95;;;;;;;;;;4966540;28;20325;-72
2022/07/27 06:26:34;;;;;;;93.97;15.95;;;;;;;;;;4968122;28;20059;-74
2022/07/27 06:29:04;;;;;;;97.80;16.02;;;;;;;;;;4967985;28;20051;-72
2022/07/27 06:31:38;;;;;;;144.18;16.02;;;;;;;;;;4951853;28;20388;-72
2022/07/27 06:34:12;;;;;;;174.13;15.10;;;;;;;;;;4967785;28;20047;-73
2022/07/27 06:36:43;;;;;;;182.02;16.75;;;;;;;;;;4967420;28;20057;-73
2022/07/27 06:39:14;;;;;;;147.10;17.00;;;;;;;;;;4968122;28;20047;-73
2022/07/27 06:41:44;;;;;;;151.20;13.73;;;;;;;;;;4971179;28;20043;-74
2022/07/27 06:44:13;;;;;;;139.07;14.57;;;;;;;;;;4971484;28;20047;-73
2022/07/27 06:46:43;;;;;;;;;;;;;;;;;;4971880;28;20046;-72
2022/07/27 06:49:13;;;;;;;164.35;17.35;;;;;;;;;;4971474;28;19922;-73
2022/07/27 06:51:43;;;;;;;140.32;15.23;;;;;;;;;;4971712;28;20699;-73
2022/07/27 06:54:13;;;;;;;;;;;;;;;;;;4972456;28;20051;-73
2022/07/27 06:56:43;;;;;;;97.28;14.07;;;;;;;;;;4986707;28;19933;-71
2022/07/27 06:59:13;;;;;;;188.63;15.60;;;;;;;;;;4989840;28;20357;-71
2022/07/27 07:01:43;;;;;;;188.90;17.33;;;;;;;;;;4988427;28;20051;-72
2022/07/27 07:04:17;;;;;;;145.70;15.10;;;;;;;;;;4971353;28;20050;-71
2022/07/27 07:06:53;;;;;;;96.53;13.48;;;;;;;;;;4970861;28;20422;-72
2022/07/27 07:09:23;;;;;;;133.43;16.10;;;;;;;;;;4970942;28;20498;-72
2022/07/27 07:11:52;;;;;;;;;;;;;;;;;;4971276;28;20519;-72
2022/07/27 07:14:24;;;;;;;122.20;17.20;;;;;;;;;;4971049;28;19933;-73
2022/07/27 07:16:55;;;;;;;182.00;16.58;;;;;;;;;;4971067;28;20065;-73
2022/07/27 07:19:25;;;;;;;116.50;14.90;;;;;;;;;;4971635;28;20072;-73
2022/07/27 07:21:54;;;;;;;;;;;;;;;;;;4971219;28;20061;-72
2022/07/27 07:24:24;;;;;;;142.20;15.43;;;;;;;;;;4971114;28;19945;-73
2022/07/27 07:26:53;;;;;;;155.95;15.60;;;;;;;;;;4971173;28;20047;-71
2022/07/27 07:29:23;;;;;;;178.13;18.05;;;;;;;;;;4970587;28;20062;-73
2022/07/27 07:31:53;;;;;;;137.60;13.90;;;;;;;;;;4970956;28;20050;-72
2022/07/27 07:34:23;;;;;;;121.55;12.95;;;;;;;;;;4952566;28;20055;-72
2022/07/27 07:36:53;;;;;;;116.45;14.77;;;;;;;;;;4970620;28;20039;-72
2022/07/27 07:39:23;;;;;;;115.03;15.13;;;;;;;;;;4970604;28;20050;-73
2022/07/27 07:41:59;;;;;;;119.20;15.07;;;;;;;;;;4970485;28;20522;-72
2022/07/27 07:44:29;;;;;;;241.68;17.20;;;;;;;;;;4970583;28;20827;-72
2022/07/27 07:46:58;;;;;;;;;;;;;;;;;;4970985;28;20046;-72
2022/07/27 07:49:28;;;;;;;87.35;10.77;;;;;;;;;;4970974;28;19929;-72
2022/07/27 07:52:08;;;;;;;59.10;12.23;;;;;;;;;;4969087;28;20047;-72
2022/07/27 07:54:37;;;;;;;102.40;13.93;;;;;;;;;;4970321;28;20042;-73
2022/07/27 07:57:08;;;;;;;83.95;12.30;;;;;;;;;;4970267;28;20055;-72
2022/07/27 07:59:38;;;;;;;;;;;;;;;;;;4970723;28;20058;-73
2022/07/27 08:02:07;;;;;;;69.47;9.82;;;;;;;;;;4970207;28;19926;-72
2022/07/27 08:04:37;;;;;;;120.70;13.18;;;;;;;;;;4969368;28;20061;-73
2022/07/27 08:07:07;;;;;;;65.25;12.68;;;;;;;;;;4970223;28;20077;-72
2022/07/27 08:09:37;;;;;;;;;;;;;;;;;;4952670;28;20047;-72
2022/07/27 08:12:06;;;;;;;45.13;13.27;;;;;;;;;;4969525;28;19926;-73
2022/07/27 08:14:36;;;;;;;26.05;12.80;;;;;;;;;;4969662;28;20046;-73
2022/07/27 08:17:07;;;;;;;19.50;11.80;;;;;;;;;;4970794;28;20047;-73
2022/07/27 08:19:36;;;;;;;;;;;;;;;;;;4970539;28;20320;-73
2022/07/27 08:22:08;;;;;;;34.97;11.85;;;;;;;;;;4970284;28;19926;-72
2022/07/27 08:24:37;;;;;;;39.22;11.68;;;;;;;;;;4970040;28;20054;-72
2022/07/27 08:27:08;;;;;;;45.22;12.38;;;;;;;;;;4952383;28;20061;-73
2022/07/27 08:29:39;;;;;;;22.40;13.18;;;;;;;;;;4969891;28;20053;-72
2022/07/27 08:32:08;;;;;;;79.25;13.60;;;;;;;;;;4952298;28;20422;-73
2022/07/27 08:34:38;;;;;;;205.60;15.95;;;;;;;;;;4969497;28;20054;-73
2022/07/27 08:37:08;;;;;;;;;;;;;;;;;;4952495;28;20050;-72
2022/07/27 08:39:43;;;;;;;99.05;11.80;;;;;;;;;;4969599;28;20317;-73
2022/07/27 08:42:33;;;;;;;134.15;14.63;;;;;;;;;;4970126;28;20047;-73
2022/07/27 08:45:04;;;;;;;54.45;15.02;;;;;;;;;;4969545;28;20047;-72
2022/07/27 08:47:36;;;;;;;42.17;13.93;;;;;;;;;;4969154;28;20066;-72
2022/07/27 08:50:23;;;;;;;24.27;12.48;;;;;;;;;;4969447;28;20526;-72
2022/07/27 08:53:02;;;;;;;25.00;12.27;;;;;;;;;;4969192;28;20043;-71
2022/07/27 08:55:38;;;;;;;30.08;13.13;;;;;;;;;;4969046;28;20055;-71
2022/07/27 08:58:11;;;;;;;33.97;16.73;;;;;;;;;;4969096;28;20061;-73
2022/07/27 09:00:44;;;;;;;24.95;13.68;;;;;;;;;;4969043;28;20521;-73
2022/07/27 09:03:16;;;;;;;35.85;12.68;;;;;;;;;;4968517;28;20073;-82
2022/07/27 09:05:52;;;;;;;28.45;12.93;;;;;;;;;;4969337;28;20406;-73
2022/07/27 09:08:27;;;;;;;20.50;14.30;;;;;;;;;;4968821;28;20042;-73
2022/07/27 09:11:02;;;;;;;30.27;14.15;;;;;;;;;;4969477;28;20051;-73
2022/07/27 09:13:33;;;;;;;21.40;13.95;;;;;;;;;;4968874;28;20050;-73
2022/07/27 09:16:06;;;;;;;30.70;13.98;;;;;;;;;;4969095;28;20441;-72
2022/07/27 09:18:48;;;;;;;42.15;14.80;;;;;;;;;;4968222;28;20061;-72
2022/07/27 09:21:20;;;;;;;28.08;15.40;;;;;;;;;;4966601;28;20050;-73
2022/07/27 09:23:56;;;;;;;48.92;14.85;;;;;;;;;;4968181;28;20043;-72
2022/07/27 09:26:28;;;;;;;48.63;16.88;;;;;;;;;;4968552;28;20057;-72
2022/07/27 09:29:12;;;;;;;57.97;15.52;;;;;;;;;;4968705;28;20043;-72
2022/07/27 09:31:51;;;;;;;47.95;15.45;;;;;;;;;;4968179;28;20053;-71
2022/07/27 09:34:33;;;;;;;48.33;15.00;;;;;;;;;;4968061;28;20069;-71
2022/07/27 09:37:05;;;;;;;;;;;;;;;;;;4969014;28;20051;-72
2022/07/27 09:39:35;;;;;;;38.83;15.43;;;;;;;;;;4968872;28;20369;-72
2022/07/27 09:42:04;;;;;;;60.70;16.02;;;;;;;;;;4968058;28;20055;-72
2022/07/27 09:44:41;;;;;;;135.13;19.10;;;;;;;;;;4968732;28;20038;-72
2022/07/27 09:47:25;;;;;;;133.90;21.83;;;;;;;;;;4968385;28;20062;-72
2022/07/27 09:49:56;;;;;;;;;;;;;;;;;;4968388;28;20050;-72
2022/07/27 09:52:29;;;;;;;43.67;16.30;;;;;;;;;;4968492;28;19933;-72
2022/07/27 09:55:04;;;;;;;83.10;16.17;;;;;;;;;;4968085;28;20046;-73
2022/07/27 09:57:55;;;;;;;45.90;16.25;;;;;;;;;;4967296;28;20051;-72
2022/07/27 10:00:26;;;;;;;81.45;17.52;;;;;;;;;;4965823;28;20046;-72
2022/07/27 10:02:56;;;;;;;60.55;18.65;;;;;;;;;;4965979;28;20407;-72
2022/07/27 10:05:26;;;;;;;78.30;15.40;;;;;;;;;;4966863;28;20047;-72
2022/07/27 10:07:56;;;;;;;99.40;15.43;;;;;;;;;;4966543;28;20050;-73
2022/07/27 10:10:27;;;;;;;125.10;15.18;;;;;;;;;;4966835;28;20046;-73
2022/07/27 10:12:57;;;;;;;87.75;16.42;;;;;;;;;;4966749;28;20521;-72
2022/07/27 10:15:26;;;;;;;195.73;16.63;;;;;;;;;;4967328;28;20050;-76
2022/07/27 10:18:07;;;;;;;68.68;17.35;;;;;;;;;;4950825;28;20050;-73
2022/07/27 10:20:41;;;;;;;125.32;16.02;;;;;;;;;;4968161;28;20042;-73
2022/07/27 10:23:26;;;;;;;166.25;19.05;;;;;;;;;;4967354;28;20055;-73
2022/07/27 10:26:19;;;;;;;138.93;15.23;;;;;;;;;;4967811;28;20050;-72
2022/07/27 10:29:14;;;;;;;60.58;16.92;;;;;;;;;;4968205;28;20046;-72
2022/07/27 10:31:53;;;;;;;60.70;15.38;;;;;;;;;;4968176;28;20061;-72
2022/07/27 10:34:41;;;;;;;89.45;16.35;;;;;;;;;;4967818;28;20058;-72
2022/07/27 10:37:14;;;;;;;93.15;16.23;;;;;;;;;;4967834;28;20491;-72
2022/07/27 10:42:43;;;;;;;202.80;20.77;;;;;;;;;;4967178;28;20046;-72
2022/07/27 10:45:21;;;;;;;109.85;19.17;;;;;;;;;;4967571;28;20054;-71
2022/07/27 10:47:52;;;;;;;64.47;25.95;;;;;;;;;;4967585;28;20411;-72
2022/07/27 10:50:26;;;;;;;135.70;20.17;;;;;;;;;;4965315;28;20900;-71
2022/07/27 10:53:01;;;;;;;219.60;18.90;;;;;;;;;;4964960;28;20392;-75
2022/07/27 10:55:41;;;;;;;93.70;16.67;;;;;;;;;;4964599;28;20414;-72
2022/07/27 10:58:14;;;;;;;162.43;16.45;;;;;;;;;;4967421;28;20066;-72
2022/07/27 11:00:51;;;;;;;118.40;15.43;;;;;;;;;;4967483;28;20039;-73
2022/07/27 11:03:31;;;;;;;187.15;15.60;;;;;;;;;;4950292;28;20070;-72
2022/07/27 11:06:09;;;;;;;56.47;14.77;;;;;;;;;;4967122;28;20038;-72
2022/07/27 11:09:01;;;;;;;25.85;14.32;;;;;;;;;;4967105;28;20402;-75
2022/07/27 11:11:52;;;;;;;34.05;13.60;;;;;;;;;;4967532;28;20050;-72
2022/07/27 11:14:27;;;;;;;56.42;15.60;;;;;;;;;;4966938;28;20055;-71
2022/07/27 11:17:04;;;;;;;66.13;15.13;;;;;;;;;;4967306;28;20510;-72
2022/07/27 11:19:59;;;;;;;56.45;14.65;;;;;;;;;;4967705;28;20051;-77
2022/07/27 11:22:36;;;;;;;43.67;13.82;;;;;;;;;;4967380;28;20051;-74
2022/07/27 11:25:26;;;;;;;40.17;15.77;;;;;;;;;;4968565;28;20046;-72
2022/07/27 11:27:56;;;;;;;43.47;13.90;;;;;;;;;;4970371;28;20521;-72
2022/07/27 11:30:27;;;;;;;43.05;14.57;;;;;;;;;;4971001;28;20058;-74
2022/07/27 11:33:03;;;;;;;84.70;15.50;;;;;;;;;;4970677;28;20047;-73
2022/07/27 11:35:34;;;;;;;51.10;15.93;;;;;;;;;;4970808;28;20053;-72
2022/07/27 11:38:06;;;;;;;34.65;12.65;;;;;;;;;;4969427;28;20059;-72
2022/07/27 11:40:47;;;;;;;21.05;12.00;;;;;;;;;;4970560;28;20050;-72
2022/07/27 11:43:42;;;;;;;62.20;12.48;;;;;;;;;;4970436;28;20053;-72
2022/07/27 11:46:25;;;;;;;90.55;12.60;;;;;;;;;;4970643;28;20410;-72
2022/07/27 11:49:00;;;;;;;33.05;10.43;;;;;;;;;;4970523;28;20046;-77
2022/07/27 11:51:41;;;;;;;70.22;11.45;;;;;;;;;;4971019;28;20054;-73
2022/07/27 11:54:24;;;;;;;99.50;12.27;;;;;;;;;;4970067;28;20046;-72
2022/07/27 11:57:03;;;;;;;27.48;10.77;;;;;;;;;;4970341;28;20418;-73
2022/07/27 11:59:36;;;;;;;20.90;10.48;;;;;;;;;;4970145;28;20058;-73
2022/07/27 12:02:12;;;;;;;15.20;10.48;;;;;;;;;;4969783;28;20061;-73
2022/07/27 12:04:45;;;;;;;23.30;10.95;;;;;;;;;;4970633;28;20057;-74
2022/07/27 12:07:18;;;;;;;17.13;10.30;;;;;;;;;;4970170;28;20058;-74
2022/07/27 12:09:57;;;;;;;13.43;9.13;;;;;;;;;;4970146;28;20042;-73
2022/07/27 12:12:32;;;;;;;19.73;10.23;;;;;;;;;;4970196;28;20057;-73
2022/07/27 12:15:14;;;;;;;36.65;11.90;;;;;;;;;;4969712;28;20046;-73
2022/07/27 12:18:04;;;;;;;14.93;7.95;;;;;;;;;;4970563;28;20051;-73
2022/07/27 12:20:36;;;;;;;18.20;9.30;;;;;;;;;;4969947;28;20058;-73
2022/07/27 12:23:08;;;;;;;13.55;9.48;;;;;;;;;;4969949;28;20047;-73
2022/07/27 12:25:40;;;;;;;16.52;12.13;;;;;;;;;;4970068;28;20046;-72
2022/07/27 12:28:12;;;;;;;13.18;8.45;;;;;;;;;;4970237;28;20390;-72
2022/07/27 12:30:51;;;;;;;12.35;8.68;;;;;;;;;;4969758;28;20058;-72
2022/07/27 12:33:25;;;;;;;12.95;8.98;;;;;;;;;;4969483;28;20051;-73
2022/07/27 12:35:56;;;;;;;9.90;8.63;;;;;;;;;;4969772;28;20043;-73
2022/07/27 12:38:40;;;;;;;10.15;7.43;;;;;;;;;;4951044;28;20066;-78
2022/07/27 12:41:21;;;;;;;11.05;8.95;;;;;;;;;;4969819;28;20050;-72
2022/07/27 12:44:12;;;;;;;31.00;27.80;;;;;;;;;;4968932;28;20054;-73
2022/07/27 12:47:43;;;;;;;12.07;8.07;;;;;;;;;;4969576;28;20055;-74
2022/07/27 12:50:08;;;;;;;16.60;9.15;;;;;;;;;;4962901;28;20084;-72
2022/07/27 12:52:42;;;;;;;11.55;8.15;;;;;;;;;;4969289;28;20066;-74
2022/07/27 12:55:14;;;;;;;10.73;8.30;;;;;;;;;;4968896;28;20043;-74
2022/07/27 12:57:44;;;;;;;15.68;8.38;;;;;;;;;;4969364;28;20054;-73
2022/07/27 13:00:28;;;;;;;13.38;8.60;;;;;;;;;;4951673;28;20557;-73
2022/07/27 13:03:03;;;;;;;12.43;8.27;;;;;;;;;;4969019;28;20066;-78
2022/07/27 13:05:34;;;;;;;15.38;8.55;;;;;;;;;;4968921;28;20047;-74
2022/07/27 13:08:05;;;;;;;12.70;8.05;;;;;;;;;;4968964;28;20046;-74
2022/07/27 13:10:36;;;;;;;12.68;7.47;;;;;;;;;;4967388;28;20449;-74
2022/07/27 13:13:07;;;;;;;12.32;8.05;;;;;;;;;;4969498;28;20050;-74
2022/07/27 13:15:38;;;;;;;13.10;7.75;;;;;;;;;;4952128;28;20065;-74
2022/07/27 13:18:07;;;;;;;12.50;8.77;;;;;;;;;;4968898;28;20142;-74
2022/07/27 13:20:38;;;;;;;11.82;8.13;;;;;;;;;;4968786;28;20058;-74
2022/07/27 13:23:08;;;;;;;11.30;8.20;;;;;;;;;;4968294;28;20057;-74
2022/07/27 13:25:38;;;;;;;11.77;8.40;;;;;;;;;;4968778;28;20043;-74
2022/07/27 13:28:11;;;;;;;10.15;8.20;;;;;;;;;;4968963;28;20050;-74
2022/07/27 13:30:41;;;;;;;9.95;7.63;;;;;;;;;;4968397;28;20054;-75
2022/07/27 13:33:11;;;;;;;11.32;7.47;;;;;;;;;;4968882;28;20486;-74
2022/07/27 13:35:41;;;;;;;11.68;8.43;;;;;;;;;;4968804;28;20050;-76
2022/07/27 13:38:14;;;;;;;11.18;7.60;;;;;;;;;;4969597;28;20046;-74
2022/07/27 13:40:44;;;;;;;12.00;7.70;;;;;;;;;;4969184;28;20054;-74
2022/07/27 13:43:14;;;;;;;10.85;7.85;;;;;;;;;;4968320;28;20050;-73
2022/07/27 13:45:44;;;;;;;11.07;7.35;;;;;;;;;;4968191;28;20836;-74
2022/07/27 13:48:14;;;;;;;24.85;8.48;;;;;;;;;;4968808;28;20066;-73
2022/07/27 13:50:44;;;;;;;11.95;8.85;;;;;;;;;;4952664;28;20065;-74
2022/07/27 13:53:16;;;;;;;13.23;8.55;;;;;;;;;;4968639;28;20050;-72
2022/07/27 13:55:47;;;;;;;14.32;8.27;;;;;;;;;;4968268;28;20520;-74
2022/07/27 13:58:17;;;;;;;15.90;8.48;;;;;;;;;;4967950;28;20057;-73
2022/07/27 14:00:49;;;;;;;16.05;8.27;;;;;;;;;;4968015;28;20054;-74
2022/07/27 14:03:19;;;;;;;16.55;7.88;;;;;;;;;;4968107;28;21204;-75
2022/07/27 14:05:49;;;;;;;17.02;7.82;;;;;;;;;;4968205;28;20070;-75
2022/07/27 14:08:20;;;;;;;15.63;9.07;;;;;;;;;;4967705;28;20074;-73
2022/07/27 14:10:51;;;;;;;10.48;7.13;;;;;;;;;;4968113;28;20115;-75
2022/07/27 14:13:23;;;;;;;11.43;8.00;;;;;;;;;;4967588;28;20038;-76
2022/07/27 14:15:53;;;;;;;13.63;7.30;;;;;;;;;;4967957;28;20057;-73
2022/07/27 14:18:29;;;;;;;15.00;7.65;;;;;;;;;;4967829;28;20062;-74
2022/07/27 14:21:05;;;;;;;13.60;7.75;;;;;;;;;;4967623;28;20047;-74
2022/07/27 14:23:36;;;;;;;10.73;7.07;;;;;;;;;;4950307;28;20431;-74
2022/07/27 14:26:08;;;;;;;10.80;7.97;;;;;;;;;;4967775;28;20055;-73
2022/07/27 14:28:38;;;;;;;9.88;7.70;;;;;;;;;;4967909;28;20046;-75
2022/07/27 14:31:10;;;;;;;12.32;8.32;;;;;;;;;;4967922;28;20051;-75
2022/07/27 14:33:40;;;;;;;11.88;8.00;;;;;;;;;;4950640;28;20070;-73
2022/07/27 14:36:10;;;;;;;25.17;9.27;;;;;;;;;;4968007;28;20051;-74
2022/07/27 14:38:42;;;;;;;20.30;8.27;;;;;;;;;;4968416;28;20051;-78
2022/07/27 14:41:13;;;;;;;12.50;7.70;;;;;;;;;;4967737;28;20039;-76
2022/07/27 14:43:44;;;;;;;13.55;7.82;;;;;;;;;;4967484;28;20058;-73
2022/07/27 14:46:13;;;;;;;13.43;6.45;;;;;;;;;;4967440;28;20706;-74
2022/07/27 14:48:44;;;;;;;9.75;7.55;;;;;;;;;;4968040;28;20528;-75
2022/07/27 14:51:35;;;;;;;10.10;7.45;;;;;;;;;;4968019;28;20057;-74
2022/07/27 14:54:06;;;;;;;10.40;8.10;;;;;;;;;;4967056;28;20043;-75
2022/07/27 14:56:36;;;;;;;9.48;6.95;;;;;;;;;;4950163;28;20046;-74
2022/07/27 14:59:06;;;;;;;14.20;8.80;;;;;;;;;;4950929;28;20054;-74
2022/07/27 15:01:36;;;;;;;9.23;7.47;;;;;;;;;;4970364;28;20046;-74
2022/07/27 15:04:06;;;;;;;11.38;6.85;;;;;;;;;;4971338;28;20421;-74
2022/07/27 15:06:36;;;;;;;12.00;8.60;;;;;;;;;;4970346;28;20051;-74